Time;durP1;ratioP1;P1;durP2;ratioP2;P2;SDS_P1;SDS_P2;PMS_P1;PMS_P2;Temp;Humidity;BMP_temperature;BMP_pressure;BME280_temperature;BME280_humidity;BME280_pressure;Samples;Min_cycle;Max_cycle;Signal;HPM_P1;HPM_P2
2022/07/05 00:02:15;;;;;;;1999.90;999.90;;;;;;;22.11;78.36;95677.91;5025354;28;20386;-72
2022/07/05 00:04:41;;;;;;;1999.90;999.90;;;;;;;22.12;78.63;95682.16;5029927;28;20034;-72
2022/07/05 00:07:18;;;;;;;1999.90;999.90;;;;;;;22.11;78.41;95674.38;5028605;28;20034;-71
2022/07/05 00:09:54;;;;;;;1999.90;999.90;;;;;;;22.02;78.14;95680.81;5029197;28;20030;-71
2022/07/05 00:12:21;;;;;;;1999.90;999.90;;;;;;;21.90;78.72;95680.22;5028995;28;20026;-73
2022/07/05 00:14:47;;;;;;;1999.90;999.90;;;;;;;21.86;79.11;95679.41;5019747;28;20083;-72
2022/07/05 00:17:13;;;;;;;1999.90;999.90;;;;;;;21.56;77.00;95685.50;5028299;28;20033;-72
2022/07/05 00:19:39;;;;;;;1999.90;999.90;;;;;;;20.81;78.24;95688.72;5031810;28;20104;-71
2022/07/05 00:22:05;;;;;;;1999.90;999.90;;;;;;;20.34;80.67;95686.94;5029547;28;20393;-71
2022/07/05 00:24:30;;;;;;;1999.90;999.90;;;;;;;19.94;82.64;95688.75;5030724;28;20117;-71
2022/07/05 00:26:55;;;;;;;1999.90;999.90;;;;;;;20.41;82.63;95687.06;5030210;28;20029;-73
2022/07/05 00:29:21;;;;;;;1999.90;999.90;;;;;;;20.74;82.55;95687.44;5039049;28;20055;-71
2022/07/05 00:31:47;;;;;;;1999.90;999.90;;;;;;;21.02;82.63;95684.50;5033278;28;20037;-71
2022/07/05 00:34:13;;;;;;;1999.90;999.90;;;;;;;21.20;82.34;95676.72;5046513;28;20116;-71
2022/07/05 00:36:38;;;;;;;1999.90;999.90;;;;;;;21.33;81.90;95671.16;5028567;28;20137;-71
2022/07/05 00:39:05;;;;;;;1999.90;999.90;;;;;;;21.41;81.90;95662.03;5030548;28;20026;-72
2022/07/05 00:41:31;;;;;;;1999.90;999.90;;;;;;;21.45;81.87;95654.78;5029596;28;20478;-71
2022/07/05 00:43:59;;;;;;;1999.90;999.90;;;;;;;21.48;81.81;95654.03;5029783;28;20034;-71
2022/07/05 00:46:26;;;;;;;1999.90;999.90;;;;;;;21.51;81.63;95654.09;5028195;28;20120;-72
2022/07/05 00:48:52;;;;;;;1999.90;999.90;;;;;;;21.53;81.39;95646.38;5031556;28;20096;-71
2022/07/05 00:51:18;;;;;;;1999.90;999.90;;;;;;;21.51;81.10;95643.28;5030002;28;20120;-71
2022/07/05 00:53:44;;;;;;;1999.90;999.90;;;;;;;21.49;81.31;95634.72;5029358;28;20083;-71
2022/07/05 00:56:11;;;;;;;1999.90;999.90;;;;;;;21.50;81.16;95636.31;5029048;28;20026;-72
2022/07/05 00:58:37;;;;;;;1999.90;999.90;;;;;;;21.56;81.14;95638.69;5030675;28;20124;-71
2022/07/05 01:01:05;;;;;;;1999.90;999.90;;;;;;;21.46;80.76;95627.34;5028437;28;20748;-71
2022/07/05 01:03:30;;;;;;;1999.90;999.90;;;;;;;21.30;80.81;95634.78;5029919;28;20112;-71
2022/07/05 01:05:56;;;;;;;1999.90;999.90;;;;;;;21.34;80.92;95637.53;5029280;28;20087;-71
2022/07/05 01:08:23;;;;;;;1999.90;999.90;;;;;;;21.41;80.90;95640.38;5030535;28;20025;-72
2022/07/05 01:10:49;;;;;;;1999.90;999.90;;;;;;;21.44;80.69;95645.84;5026079;28;20390;-71
2022/07/05 01:13:14;;;;;;;1999.90;999.90;;;;;;;20.19;80.63;95645.31;5029779;28;20017;-71
2022/07/05 01:15:41;;;;;;;1999.90;999.90;;;;;;;19.98;81.15;95667.22;5027693;28;20021;-71
2022/07/05 01:18:07;;;;;;;1999.90;999.90;;;;;;;19.94;82.52;95655.56;5030538;28;20025;-71
2022/07/05 01:20:33;;;;;;;1999.90;999.90;;;;;;;19.70;83.08;95665.41;5028283;28;20406;-72
2022/07/05 01:23:01;;;;;;;1999.90;999.90;;;;;;;19.46;84.24;95660.19;5032163;28;20021;-71
2022/07/05 01:25:28;;;;;;;1999.90;999.90;;;;;;;19.33;85.54;95654.06;5034917;28;20550;-72
2022/07/05 01:27:55;;;;;;;1999.90;999.90;;;;;;;19.02;86.59;95664.81;5033189;28;20083;-72
2022/07/05 01:30:20;;;;;;;1999.90;999.90;;;;;;;19.03;86.03;95651.00;5037774;28;20465;-72
2022/07/05 01:32:46;;;;;;;1999.90;999.90;;;;;;;19.54;85.42;95629.53;5027989;28;20037;-71
2022/07/05 01:35:13;;;;;;;1999.90;999.90;;;;;;;20.16;83.86;95627.88;5027861;28;20033;-71
2022/07/05 01:37:39;;;;;;;1999.90;999.90;;;;;;;20.46;83.00;95644.38;5029914;28;20496;-72
2022/07/05 01:40:06;;;;;;;1999.90;999.90;;;;;;;20.62;82.35;95630.78;5027701;28;20471;-72
2022/07/05 01:42:31;;;;;;;1999.90;999.90;;;;;;;20.85;82.01;95644.38;5035662;28;20033;-71
2022/07/05 01:44:57;;;;;;;1999.90;999.90;;;;;;;20.40;81.30;95645.00;5039206;28;20541;-71
2022/07/05 01:47:23;;;;;;;1999.90;999.90;;;;;;;20.36;81.07;95649.53;5028120;28;20493;-73
2022/07/05 01:49:53;;;;;;;1999.90;999.90;;;;;;;20.63;81.34;95647.81;5028003;28;20094;-73
2022/07/05 01:52:21;;;;;;;1999.90;999.90;;;;;;;20.67;81.09;95633.22;5026865;28;20440;-72
2022/07/05 01:54:47;;;;;;;1999.90;999.90;;;;;;;20.81;80.83;95645.44;5027556;28;20083;-72
2022/07/05 01:57:13;;;;;;;1999.90;999.90;;;;;;;20.77;81.35;95631.84;5027869;28;20593;-67
2022/07/05 01:59:38;;;;;;;1999.90;999.90;;;;;;;20.82;81.41;95642.38;5028779;28;20548;-68
2022/07/05 02:02:05;;;;;;;1999.90;999.90;;;;;;;20.87;81.13;95631.28;5027605;28;20037;-68
2022/07/05 02:04:33;;;;;;;1999.90;999.90;;;;;;;20.88;81.08;95616.63;5028769;28;20084;-68
2022/07/05 02:06:58;;;;;;;1999.90;999.90;;;;;;;20.93;80.97;95629.06;5028387;28;20049;-68
2022/07/05 02:09:24;;;;;;;1999.90;999.90;;;;;;;20.93;80.70;95637.94;5026934;28;20064;-68
2022/07/05 02:11:49;;;;;;;1999.90;999.90;;;;;;;20.86;80.73;95629.72;5030997;28;20033;-67
2022/07/05 02:14:14;;;;;;;1999.90;999.90;;;;;;;20.91;80.56;95647.56;5034217;28;20026;-68
2022/07/05 02:16:40;;;;;;;1999.90;999.90;;;;;;;20.90;80.69;95646.00;5028475;28;20389;-68
2022/07/05 02:19:06;;;;;;;1999.90;999.90;;;;;;;20.87;80.91;95647.50;5029596;28;20029;-68
2022/07/05 02:21:31;;;;;;;1999.90;999.90;;;;;;;20.93;80.71;95640.66;5026160;28;20076;-68
2022/07/05 02:23:56;;;;;;;1999.90;999.90;;;;;;;20.91;80.76;95642.94;5028190;28;20129;-68
2022/07/05 02:26:21;;;;;;;1999.90;999.90;;;;;;;20.92;80.60;95643.72;5037037;28;20466;-68
2022/07/05 02:28:47;;;;;;;1999.90;999.90;;;;;;;20.97;80.63;95638.81;5029166;28;20060;-68
2022/07/05 02:31:13;;;;;;;1999.90;999.90;;;;;;;21.03;80.56;95637.38;5027975;28;20108;-68
2022/07/05 02:33:38;;;;;;;1999.90;999.90;;;;;;;21.01;80.33;95639.66;5026162;28;20625;-68
2022/07/05 02:36:12;;;;;;;1999.90;999.90;;;;;;;21.08;80.33;95655.22;5027541;28;20029;-68
2022/07/05 02:38:38;;;;;;;1999.90;999.90;;;;;;;21.05;80.32;95647.84;5026489;28;20087;-68
2022/07/05 02:41:08;;;;;;;1999.90;999.90;;;;;;;20.99;80.06;95646.59;5026571;28;20033;-69
2022/07/05 02:43:34;;;;;;;1999.90;999.90;;;;;;;20.91;80.19;95640.25;5027737;28;20449;-68
2022/07/05 02:46:03;;;;;;;1999.90;999.90;;;;;;;20.92;80.10;95654.53;5025737;28;20037;-69
2022/07/05 02:48:28;;;;;;;1999.90;999.90;;;;;;;20.88;80.68;95649.09;5015806;28;20034;-68
2022/07/05 02:50:54;;;;;;;1999.90;999.90;;;;;;;20.83;80.89;95641.25;5014372;28;20039;-68
2022/07/05 02:53:19;;;;;;;1999.90;999.90;;;;;;;20.89;80.67;95644.47;5027444;28;20148;-68
2022/07/05 02:55:44;;;;;;;1999.90;999.90;;;;;;;20.97;80.89;95646.91;5028458;28;20033;-68
2022/07/05 02:58:10;;;;;;;1999.90;999.90;;;;;;;20.97;80.48;95646.13;5027795;28;20052;-68
2022/07/05 03:00:35;;;;;;;1999.90;999.90;;;;;;;21.11;80.15;95653.75;5028193;28;20030;-68
2022/07/05 03:03:00;;;;;;;1999.90;999.90;;;;;;;21.17;80.14;95650.38;5031626;28;20021;-69
2022/07/05 03:05:26;;;;;;;1999.90;999.90;;;;;;;21.15;80.17;95649.97;5031405;28;20075;-69
2022/07/05 03:07:51;;;;;;;1999.90;999.90;;;;;;;21.22;80.07;95647.38;5030756;28;20030;-68
2022/07/05 03:10:16;;;;;;;1999.90;999.90;;;;;;;21.22;80.20;95650.09;5029533;28;20029;-68
2022/07/05 03:12:42;;;;;;;1999.90;999.90;;;;;;;21.20;80.14;95649.66;5032964;28;20151;-68
2022/07/05 03:15:08;;;;;;;1999.90;999.90;;;;;;;21.24;79.86;95650.53;5020624;28;20083;-68
2022/07/05 03:17:33;;;;;;;1999.90;999.90;;;;;;;21.29;79.96;95657.53;5031610;28;20405;-68
2022/07/05 03:19:58;;;;;;;1999.90;999.90;;;;;;;21.22;79.73;95654.72;5028991;28;20032;-68
2022/07/05 03:22:24;;;;;;;1999.90;999.90;;;;;;;20.96;79.52;95633.75;5031856;28;20413;-68
2022/07/05 03:24:49;;;;;;;1999.90;999.90;;;;;;;21.16;79.68;95648.81;5029961;28;20025;-68
2022/07/05 03:27:14;;;;;;;1999.90;999.90;;;;;;;21.21;79.42;95662.03;5032685;28;20100;-68
2022/07/05 03:29:40;;;;;;;1999.90;999.90;;;;;;;21.11;78.96;95662.63;5030210;28;20018;-69
2022/07/05 03:32:05;;;;;;;1999.90;999.90;;;;;;;21.01;78.96;95655.88;5031127;28;20045;-68
2022/07/05 03:34:31;;;;;;;1999.90;999.90;;;;;;;20.99;78.63;95660.88;5028528;28;20030;-68
2022/07/05 03:36:56;;;;;;;1999.90;999.90;;;;;;;20.97;78.65;95655.03;5032505;28;20022;-69
2022/07/05 03:39:21;;;;;;;1999.90;999.90;;;;;;;20.97;78.47;95660.44;5029305;28;20037;-68
2022/07/05 03:41:47;;;;;;;1999.90;999.90;;;;;;;20.89;78.77;95672.28;5030793;28;20036;-68
2022/07/05 03:44:12;;;;;;;1999.90;999.90;;;;;;;20.86;78.86;95672.19;5031096;28;20021;-69
2022/07/05 03:46:37;;;;;;;1999.90;999.90;;;;;;;20.88;78.53;95667.19;5027838;28;20037;-68
2022/07/05 03:49:03;;;;;;;1999.90;999.90;;;;;;;20.82;78.69;95664.00;5030652;28;20500;-68
2022/07/05 03:51:28;;;;;;;1999.90;999.90;;;;;;;20.79;78.83;95672.84;5031170;28;20116;-68
2022/07/05 03:53:53;;;;;;;1999.90;999.90;;;;;;;20.73;78.90;95671.56;5026585;28;20022;-68
2022/07/05 03:56:22;;;;;;;1999.90;999.90;;;;;;;20.73;79.01;95658.84;5032222;28;20029;-69
2022/07/05 03:58:50;;;;;;;1999.90;999.90;;;;;;;20.80;78.84;95665.53;5031172;28;20510;-69
2022/07/05 04:01:16;;;;;;;1999.90;999.90;;;;;;;20.76;78.87;95668.91;5026872;28;20044;-68
2022/07/05 04:03:42;;;;;;;1999.90;999.90;;;;;;;20.78;78.99;95671.28;5030953;28;20108;-68
2022/07/05 04:06:10;;;;;;;1999.90;999.90;;;;;;;20.84;79.12;95663.69;5032043;28;20021;-68
2022/07/05 04:08:36;;;;;;;1999.90;999.90;;;;;;;20.83;79.08;95672.91;5029382;28;20036;-68
2022/07/05 04:11:02;;;;;;;1999.90;999.90;;;;;;;20.86;78.82;95666.78;5029593;28;20057;-68
2022/07/05 04:13:27;;;;;;;1999.90;999.90;;;;;;;20.72;78.70;95651.84;5031767;28;20064;-69
2022/07/05 04:15:55;;;;;;;1999.90;999.90;;;;;;;20.92;78.80;95676.97;5029929;28;20029;-69
2022/07/05 04:18:20;;;;;;;1999.90;999.90;;;;;;;20.98;78.85;95677.44;5030585;28;20052;-68
2022/07/05 04:20:45;;;;;;;1999.90;999.90;;;;;;;20.99;78.79;95671.69;5030261;28;20057;-72
2022/07/05 04:23:11;;;;;;;1999.90;999.90;;;;;;;21.09;78.80;95669.53;5028961;28;20037;-73
2022/07/05 04:25:36;;;;;;;1999.90;999.90;;;;;;;21.07;78.29;95667.19;5030561;28;20083;-74
2022/07/05 04:28:01;;;;;;;1999.90;999.90;;;;;;;21.20;78.29;95670.53;5029872;28;20805;-75
2022/07/05 04:30:27;;;;;;;1999.90;999.90;;;;;;;21.44;78.55;95681.03;5028542;28;20037;-75
2022/07/05 04:32:52;;;;;;;1999.90;999.90;;;;;;;21.65;78.41;95674.41;5029402;28;20022;-75
2022/07/05 04:35:18;;;;;;;1999.90;999.90;;;;;;;21.88;78.29;95677.88;5028453;28;20486;-72
2022/07/05 04:37:43;;;;;;;1999.90;999.90;;;;;;;22.20;78.21;95688.44;5029222;28;20025;-73
2022/07/05 04:40:11;;;;;;;1999.90;999.90;;;;;;;22.45;77.61;95672.53;5027009;28;20482;-71
2022/07/05 04:42:37;;;;;;;1999.90;999.90;;;;;;;22.78;77.03;95679.94;5029218;28;20029;-75
2022/07/05 04:45:03;;;;;;;1999.90;999.90;;;;;;;22.86;76.05;95684.28;5029455;28;20025;-75
2022/07/05 04:47:29;;;;;;;1999.90;999.90;;;;;;;22.82;75.68;95683.47;5030702;28;20026;-73
2022/07/05 04:49:56;;;;;;;1999.90;999.90;;;;;;;22.83;75.24;95685.03;5029174;28;20501;-76
2022/07/05 04:52:22;;;;;;;1999.90;999.90;;;;;;;22.83;75.19;95687.75;5027510;28;20029;-72
2022/07/05 04:54:47;;;;;;;1999.90;999.90;;;;;;;22.84;75.64;95673.81;5029823;28;20025;-72
2022/07/05 04:57:13;;;;;;;1999.90;999.90;;;;;;;22.88;75.35;95678.50;5030942;28;20028;-72
2022/07/05 04:59:38;;;;;;;1999.90;999.90;;;;;;;22.86;75.00;95676.16;5028392;28;20056;-71
2022/07/05 05:02:03;;;;;;;1999.90;999.90;;;;;;;22.70;74.81;95670.94;5026343;28;20021;-72
2022/07/05 05:04:29;;;;;;;1999.90;999.90;;;;;;;22.80;74.77;95691.19;5028561;28;20056;-74
2022/07/05 05:06:54;;;;;;;1999.90;999.90;;;;;;;22.72;74.70;95681.41;5030350;28;20063;-73
2022/07/05 05:09:20;;;;;;;1999.90;999.90;;;;;;;22.56;74.71;95681.59;5028865;28;20067;-75
2022/07/05 05:11:46;;;;;;;1999.90;999.90;;;;;;;22.61;75.21;95675.84;5032651;28;20021;-69
2022/07/05 05:14:11;;;;;;;1999.90;999.90;;;;;;;22.78;75.40;95683.44;5030503;28;20082;-74
2022/07/05 05:16:36;;;;;;;1999.90;999.90;;;;;;;22.79;75.04;95660.59;5029549;28;20092;-75
2022/07/05 05:19:02;;;;;;;1999.90;999.90;;;;;;;23.07;75.08;95678.34;5027027;28;20029;-76
2022/07/05 05:21:27;;;;;;;1999.90;999.90;;;;;;;23.23;74.33;95678.91;5028800;28;20029;-75
2022/07/05 05:23:52;;;;;;;1999.90;999.90;;;;;;;23.28;73.97;95684.00;5028388;28;20043;-75
2022/07/05 05:26:18;;;;;;;1999.90;999.90;;;;;;;23.26;73.70;95664.59;5029313;28;20474;-73
2022/07/05 05:28:43;;;;;;;1999.90;999.90;;;;;;;23.46;73.82;95678.75;5028230;28;20044;-75
2022/07/05 05:31:09;;;;;;;1999.90;999.90;;;;;;;23.04;71.20;95669.03;5019565;28;20026;-74
2022/07/05 05:33:34;;;;;;;1999.90;999.90;;;;;;;23.02;70.59;95665.91;5016914;28;20463;-74
2022/07/05 05:36:01;;;;;;;1999.90;999.90;;;;;;;23.38;73.39;95673.63;5026879;28;20597;-75
2022/07/05 05:38:26;;;;;;;1999.90;999.90;;;;;;;23.58;73.45;95675.75;5029513;28;20033;-76
2022/07/05 05:40:52;;;;;;;1999.90;999.90;;;;;;;23.61;73.04;95687.81;5026648;28;20374;-74
2022/07/05 05:43:17;;;;;;;1999.90;999.90;;;;;;;23.27;72.85;95633.59;5016082;28;20478;-73
2022/07/05 05:45:43;;;;;;;1999.90;999.90;;;;;;;22.73;71.36;95667.50;5025276;28;20022;-77
2022/07/05 05:48:08;;;;;;;1999.90;999.90;;;;;;;22.57;70.59;95669.59;5028598;28;20025;-75
2022/07/05 05:50:35;;;;;;;1999.90;999.90;;;;;;;21.88;73.93;95660.84;5027263;28;20397;-74
2022/07/05 05:53:02;;;;;;;1999.90;999.90;;;;;;;22.56;72.66;95684.31;5026784;28;20021;-70
2022/07/05 05:55:29;;;;;;;1999.90;999.90;;;;;;;22.87;74.31;95669.56;5027972;28;20029;-70
2022/07/05 05:57:54;;;;;;;1999.90;999.90;;;;;;;22.88;73.60;95645.94;5025732;28;20025;-70
2022/07/05 06:00:21;;;;;;;1999.90;999.90;;;;;;;22.89;73.88;95642.13;5025385;28;20540;-70
2022/07/05 06:02:49;;;;;;;1999.90;999.90;;;;;;;23.46;74.18;95678.00;5029007;28;20025;-69
2022/07/05 06:05:15;;;;;;;1999.90;999.90;;;;;;;23.60;73.14;95684.34;5027800;28;20033;-69
2022/07/05 06:07:52;;;;;;;1999.90;999.90;;;;;;;23.74;73.65;95680.19;5027402;28;20532;-69
2022/07/05 06:10:26;;;;;;;1999.90;999.90;;;;;;;23.61;72.50;95699.47;5028000;28;20148;-70
2022/07/05 06:12:53;;;;;;;1999.90;999.90;;;;;;;23.51;72.42;95704.78;5027895;28;20025;-69
2022/07/05 06:15:20;;;;;;;1999.90;999.90;;;;;;;23.78;73.59;95691.88;5025622;28;20044;-68
2022/07/05 06:17:45;;;;;;;1999.90;999.90;;;;;;;23.54;71.91;95710.25;5028661;28;20033;-68
2022/07/05 06:20:25;;;;;;;1999.90;999.90;;;;;;;22.48;71.74;95709.78;5026035;28;20025;-67
2022/07/05 06:22:52;;;;;;;1999.90;999.90;;;;;;;21.94;73.05;95700.81;5023896;28;20033;-69
2022/07/05 06:25:18;;;;;;;1999.90;999.90;;;;;;;21.31;74.68;95698.59;5027173;28;20868;-71
2022/07/05 06:27:46;;;;;;;1999.90;999.90;;;;;;;20.60;76.65;95676.31;5026655;28;20051;-70
2022/07/05 06:30:15;;;;;;;1999.90;999.90;;;;;;;20.95;77.37;95680.88;5025296;28;20525;-70
2022/07/05 06:32:43;;;;;;;1999.90;999.90;;;;;;;21.61;76.40;95722.31;5026279;28;20041;-70
2022/07/05 06:35:09;;;;;;;1999.90;999.90;;;;;;;21.84;74.64;95716.88;5031170;28;20024;-70
2022/07/05 06:37:48;;;;;;;1999.90;999.90;;;;;;;21.84;75.45;95736.63;5032387;28;20108;-70
2022/07/05 06:40:21;;;;;;;1999.90;999.90;;;;;;;21.90;76.63;95732.47;5031967;28;20029;-71
2022/07/05 06:42:47;;;;;;;1999.90;999.90;;;;;;;22.30;73.52;95723.84;5033215;28;20029;-71
2022/07/05 06:45:12;;;;;;;1999.90;999.90;;;;;;;22.80;72.87;95727.22;5030711;28;20356;-71
2022/07/05 06:47:37;;;;;;;1999.90;999.90;;;;;;;22.10;74.37;95730.47;5031223;28;20045;-70
2022/07/05 06:50:04;;;;;;;1999.90;999.90;;;;;;;22.53;74.31;95728.44;5031169;28;20811;-71
2022/07/05 06:52:31;;;;;;;1999.90;999.90;;;;;;;22.21;72.95;95731.44;5030998;28;20116;-70
2022/07/05 06:54:57;;;;;;;1999.90;999.90;;;;;;;22.77;70.37;95733.38;5033152;28;20026;-70
2022/07/05 06:57:23;;;;;;;1999.90;999.90;;;;;;;23.55;71.75;95738.97;5031485;28;20509;-70
2022/07/05 06:59:48;;;;;;;1999.90;999.90;;;;;;;22.57;70.44;95738.19;5032943;28;20033;-70
2022/07/05 07:02:14;;;;;;;1999.90;999.90;;;;;;;22.30;71.31;95726.53;5031301;28;20113;-70
2022/07/05 07:04:40;;;;;;;1999.90;999.90;;;;;;;22.40;70.19;95735.19;5031705;28;20053;-70
2022/07/05 07:09:17;;;;;;;1999.90;999.90;;;;;;;23.28;70.71;95732.88;5030947;28;20022;-70
2022/07/05 07:09:50;;;;;;;1999.90;999.90;;;;;;;22.44;71.40;95749.59;5027761;28;20413;-70
2022/07/05 07:12:15;;;;;;;1999.90;999.90;;;;;;;22.79;71.53;95736.53;5032573;28;20036;-70
2022/07/05 07:14:41;;;;;;;1999.90;999.90;;;;;;;22.35;68.86;95741.72;5032734;28;20128;-70
2022/07/05 07:17:06;;;;;;;1999.90;999.90;;;;;;;22.41;70.78;95742.97;5031310;28;20022;-70
2022/07/05 07:19:31;;;;;;;1999.90;999.90;;;;;;;23.17;70.90;95740.09;5032128;28;20223;-70
2022/07/05 07:21:57;;;;;;;1999.90;999.90;;;;;;;22.16;69.78;95750.75;5030367;28;20087;-70
2022/07/05 07:24:22;;;;;;;1999.90;999.90;;;;;;;22.27;68.27;95743.56;5031272;28;20037;-71
2022/07/05 07:27:03;;;;;;;1999.90;999.90;;;;;;;22.30;69.20;95753.66;5031232;28;20179;-71
2022/07/05 07:29:29;;;;;;;1999.90;999.90;;;;;;;21.91;72.22;95754.94;5032406;28;20458;-70
2022/07/05 07:31:56;;;;;;;1999.90;999.90;;;;;;;22.99;70.79;95750.75;5032240;28;20061;-71
2022/07/05 07:34:21;;;;;;;1999.90;999.90;;;;;;;23.12;69.47;95756.72;5031057;28;20057;-71
2022/07/05 07:36:47;;;;;;;1999.90;999.90;;;;;;;22.78;68.07;95753.19;5031613;28;20449;-71
2022/07/05 07:39:12;;;;;;;1999.90;999.90;;;;;;;23.18;65.38;95754.47;5031078;28;20419;-71
2022/07/05 07:41:38;;;;;;;1999.90;999.90;;;;;;;23.74;64.62;95740.72;5030625;28;20029;-71
2022/07/05 07:44:04;;;;;;;1999.90;999.90;;;;;;;23.51;65.60;95753.69;5032387;28;20037;-70
2022/07/05 07:46:29;;;;;;;1999.90;999.90;;;;;;;23.54;61.09;95755.63;5030438;28;20087;-71
2022/07/05 07:48:54;;;;;;;1999.90;999.90;;;;;;;22.56;63.03;95774.56;5029923;28;20494;-71
2022/07/05 07:51:21;;;;;;;1999.90;999.90;;;;;;;23.54;62.46;95752.91;5029795;28;20474;-70
2022/07/05 07:53:46;;;;;;;1999.90;999.90;;;;;;;22.96;63.02;95761.56;5032212;28;20592;-71
2022/07/05 07:56:12;;;;;;;1999.90;999.90;;;;;;;23.47;58.65;95756.34;5031852;28;20116;-71
2022/07/05 07:58:37;;;;;;;1999.90;999.90;;;;;;;24.06;60.18;95746.47;5032102;28;20025;-71
2022/07/05 08:01:02;;;;;;;1999.90;999.90;;;;;;;24.38;55.81;95756.81;5031086;28;20466;-71
2022/07/05 08:03:27;;;;;;;1999.90;999.90;;;;;;;23.92;57.23;95740.13;5030455;28;20033;-71
2022/07/05 08:05:54;;;;;;;1999.90;999.90;;;;;;;23.79;55.08;95761.34;5029811;28;20021;-71
2022/07/05 08:08:19;;;;;;;1999.90;999.90;;;;;;;23.39;53.62;95762.88;5030585;28;20056;-71
2022/07/05 08:10:44;;;;;;;1999.90;999.90;;;;;;;23.60;54.86;95760.38;5031281;28;20029;-71
2022/07/05 08:13:10;;;;;;;1999.90;999.90;;;;;;;23.54;50.18;95756.41;5030624;28;20030;-71
2022/07/05 08:15:35;;;;;;;1999.90;999.90;;;;;;;23.44;50.02;95756.28;5031450;28;20067;-71
2022/07/05 08:23:28;;;;;;;1999.90;999.90;;;;;;;23.66;48.30;95768.22;5031153;28;20062;-71
2022/07/05 08:25:53;;;;;;;1999.90;999.90;;;;;;;24.34;47.42;95758.69;5031296;28;20025;-71
2022/07/05 08:28:18;;;;;;;1999.90;999.90;;;;;;;24.05;48.41;95754.97;5030093;28;20032;-71
2022/07/05 08:30:44;;;;;;;1999.90;999.90;;;;;;;23.28;47.11;95757.28;5030983;28;20025;-71
2022/07/05 08:33:09;;;;;;;1999.90;999.90;;;;;;;23.68;46.99;95771.31;5029184;28;20025;-71
2022/07/05 08:35:34;;;;;;;1999.90;999.90;;;;;;;23.59;45.62;95764.22;5029088;28;20398;-71
2022/07/05 08:38:00;;;;;;;1999.90;999.90;;;;;;;24.31;44.78;95768.41;5031323;28;20029;-71
2022/07/05 08:40:28;;;;;;;1999.90;999.90;;;;;;;24.70;44.07;95767.91;5030804;28;20064;-71
2022/07/05 08:42:57;;;;;;;1999.90;999.90;;;;;;;24.12;41.42;95765.91;5031031;28;20029;-71
2022/07/05 08:45:26;;;;;;;1999.90;999.90;;;;;;;24.97;40.68;95767.66;5029530;28;20028;-71
2022/07/05 08:47:52;;;;;;;1999.90;999.90;;;;;;;25.20;41.42;95779.06;5014524;28;20072;-71
2022/07/05 08:50:19;;;;;;;1999.90;999.90;;;;;;;25.73;41.77;95766.78;5009695;28;20026;-71
2022/07/05 08:52:45;;;;;;;1999.90;999.90;;;;;;;25.60;39.13;95763.66;5029577;28;20032;-70
2022/07/05 08:55:11;;;;;;;1999.90;999.90;;;;;;;24.80;39.90;95769.91;5029387;28;20021;-70
2022/07/05 08:57:37;;;;;;;1999.90;999.90;;;;;;;24.58;41.20;95770.94;5027877;28;20040;-71
2022/07/05 09:00:02;;;;;;;1999.90;999.90;;;;;;;24.51;39.68;95760.78;5029080;28;20021;-70
2022/07/05 09:02:28;;;;;;;1999.90;999.90;;;;;;;24.69;40.28;95779.16;5028444;28;20037;-71
2022/07/05 09:04:56;;;;;;;1999.90;999.90;;;;;;;24.00;41.55;95758.03;5029183;28;20524;-71
2022/07/05 09:07:25;;;;;;;1999.90;999.90;;;;;;;25.28;41.35;95774.44;5027219;28;20033;-71
2022/07/05 09:09:51;;;;;;;1999.90;999.90;;;;;;;24.04;40.91;95758.84;5030350;28;20029;-71
2022/07/05 09:12:16;;;;;;;1999.90;999.90;;;;;;;24.37;40.63;95755.25;5030497;28;20120;-71
2022/07/05 09:14:42;;;;;;;1999.90;999.90;;;;;;;24.35;38.12;95782.81;5026761;28;20378;-72
2022/07/05 09:17:07;;;;;;;1999.90;999.90;;;;;;;24.63;38.05;95763.22;5029080;28;20569;-71
2022/07/05 09:19:34;;;;;;;1999.90;999.90;;;;;;;24.21;38.97;95766.38;5030156;28;20085;-71
2022/07/05 09:22:08;;;;;;;1999.90;999.90;;;;;;;24.89;36.23;95780.47;5023688;28;20078;-71
2022/07/05 09:24:42;;;;;;;1999.90;999.90;;;;;;;25.37;36.12;95777.56;5028269;28;20021;-71
2022/07/05 09:27:08;;;;;;;1999.90;999.90;;;;;;;24.84;36.92;95778.09;5019763;28;20109;-72
2022/07/05 09:29:33;;;;;;;1999.90;999.90;;;;;;;25.36;37.25;95778.75;5026974;28;20506;-71
2022/07/05 09:31:58;;;;;;;1999.90;999.90;;;;;;;26.61;35.05;95760.59;5026353;28;20032;-70
2022/07/05 09:34:24;;;;;;;1999.90;999.90;;;;;;;25.33;36.83;95783.00;5028444;28;20029;-71
2022/07/05 09:36:50;;;;;;;1999.90;999.90;;;;;;;25.93;37.52;95770.72;5027008;28;20083;-72
2022/07/05 09:39:37;;;;;;;1999.90;999.90;;;;;;;25.97;36.26;95781.66;5028625;28;20075;-72
2022/07/05 09:42:09;;;;;;;1999.90;999.90;;;;;;;25.78;37.17;95790.94;5028011;28;20091;-71
2022/07/05 09:44:45;;;;;;;1999.90;999.90;;;;;;;25.30;37.28;95786.50;5030343;28;20064;-72
2022/07/05 09:47:13;;;;;;;1999.90;999.90;;;;;;;26.03;35.52;95769.19;5028845;28;20120;-72
2022/07/05 09:49:42;;;;;;;1999.90;999.90;;;;;;;25.74;36.03;95769.09;5028131;28;20052;-71
2022/07/05 09:52:08;;;;;;;1999.90;999.90;;;;;;;26.31;36.01;95773.84;5029604;28;20030;-71
2022/07/05 09:54:33;;;;;;;1999.90;999.90;;;;;;;25.63;36.33;95777.25;5030199;28;20021;-71
2022/07/05 09:56:58;;;;;;;1999.90;999.90;;;;;;;26.09;36.46;95781.25;5028699;28;20026;-71
2022/07/05 09:59:24;;;;;;;1999.90;999.90;;;;;;;26.55;36.32;95784.00;5026324;28;20116;-72
2022/07/05 10:01:50;;;;;;;1999.90;999.90;;;;;;;26.37;36.45;95772.31;5027970;28;20102;-72
2022/07/05 10:04:15;;;;;;;1999.90;999.90;;;;;;;26.19;35.42;95772.31;5027631;28;20021;-72
2022/07/05 10:06:42;;;;;;;1999.90;999.90;;;;;;;26.55;35.04;95766.84;5029475;28;20017;-69
2022/07/05 10:09:09;;;;;;;1999.90;999.90;;;;;;;26.91;35.00;95773.78;5029325;28;20032;-70
2022/07/05 10:11:41;;;;;;;1999.90;999.90;;;;;;;25.88;36.79;95768.38;5027782;28;20052;-70
2022/07/05 10:14:16;;;;;;;1999.90;999.90;;;;;;;25.66;35.89;95781.16;5028333;28;20029;-70
2022/07/05 10:16:46;;;;;;;1999.90;999.90;;;;;;;27.21;34.29;95767.09;5029314;28;20029;-73
2022/07/05 10:19:17;;;;;;;1999.90;999.90;;;;;;;27.98;32.84;95762.41;5026750;28;20022;-72
2022/07/05 10:21:43;;;;;;;1999.90;999.90;;;;;;;27.49;32.95;95758.00;5027443;28;20040;-69
2022/07/05 10:24:09;;;;;;;1999.90;999.90;;;;;;;27.88;32.39;95768.72;5026365;28;20052;-70
2022/07/05 10:26:36;;;;;;;1999.90;999.90;;;;;;;27.23;32.23;95778.44;5027716;28;20025;-73
2022/07/05 10:29:02;;;;;;;1999.90;999.90;;;;;;;26.47;34.34;95785.19;5029427;28;20018;-72
2022/07/05 10:31:29;;;;;;;1999.90;999.90;;;;;;;25.64;34.34;95784.28;5027028;28;20037;-72
2022/07/05 10:33:55;;;;;;;1999.90;999.90;;;;;;;25.44;34.70;95744.13;5026365;28;20363;-70
2022/07/05 10:36:21;;;;;;;1999.90;999.90;;;;;;;27.12;33.78;95762.06;5028998;28;20415;-72
2022/07/05 10:38:47;;;;;;;1999.90;999.90;;;;;;;27.29;32.94;95765.91;5029116;28;20028;-69
2022/07/05 10:41:17;;;;;;;1999.90;999.90;;;;;;;27.63;32.12;95766.09;5028662;28;20022;-72
2022/07/05 10:43:42;;;;;;;1999.90;999.90;;;;;;;27.28;32.37;95745.25;5026736;28;20026;-72
2022/07/05 10:46:08;;;;;;;1999.90;999.90;;;;;;;26.46;34.72;95759.06;5029207;28;20118;-71
2022/07/05 10:48:34;;;;;;;1999.90;999.90;;;;;;;26.42;34.14;95769.22;5025696;28;20021;-72
2022/07/05 10:51:13;;;;;;;1999.90;999.90;;;;;;;26.47;35.08;95781.69;5028741;28;20029;-71
2022/07/05 10:53:39;;;;;;;1999.90;999.90;;;;;;;25.90;35.26;95783.19;5027780;28;20029;-71
2022/07/05 10:56:04;;;;;;;1999.90;999.90;;;;;;;25.61;35.71;95776.09;5027105;28;20059;-71
2022/07/05 10:58:33;;;;;;;1999.90;999.90;;;;;;;26.25;34.52;95778.91;5027686;28;20272;-72